Hundvaag 1 weather for Sep 2001
Month no. 171
Obs.
Da.
Temp. Dew Point Precip. Wind
Speed
Wind gusts Cloud cover Press. Humidity Wind dir. Sunny OPT
01.09.2001 14,9   28,2     9 1011,5        
02.09.2001 13,8   1,5     0 1006,5     1  
03.09.2001 12,3   8,5     0 1006,8     1  
04.09.2001 12,4   0,4     7 1006,9        
05.09.2001 13,3   0,0     0 1011,7        
06.09.2001 11,7   2,0     3 1010,8     1  
07.09.2001 10,6   16,3     2 1008,9        
08.09.2001 9,7   6,7     5 1005,1     1  
09.09.2001 11,3   0,0     8 1006,8     1  
10.09.2001 12,4   0,0     9 1006,5     1  
11.09.2001 11,0   3,6     7 1007,7     1  
12.09.2001 9,0   0,0     9 1010,1     1  
13.09.2001 12,4   4,7     0 1004,1        
14.09.2001 11,4   3,4     0 1005,3        
15.09.2001 12,7   0,0     0 1004,0        
16.09.2001 12,2   3,2     0 1007,3        
17.09.2001 10,3   0,0     10 1017,1     1  
18.09.2001 13,9   0,0     10 1018,0     1  
19.09.2001 16,3   0,0     2 1014,3        
20.09.2001 11,1   27,7     4 1015,6        
21.09.2001 5,5   0,0     9 1014,7     1  
22.09.2001 13,1   0,0     3 1014,4     1  
23.09.2001 12,5   0,0     2 1016,0     1  
24.09.2001 12,7   0,0     7 1018,4     1  
25.09.2001 7,1   0,0     5 1019,3     1  
26.09.2001 8,0   0,0     8 1018,4     1  
27.09.2001 10,8   6,5     0 1014,4     1  
28.09.2001 8,4   0,0     3 1013,3     1  
29.09.2001 11,3   0,4     0 1014,3        
30.09.2001 12,6   2,0     0 1011,2        
                       
Avrg/Sum 11,5   115,1     4,1 1011,3     18